Time;durP1;ratioP1;P1;durP2;ratioP2;P2;SDS_P1;SDS_P2;PMS_P1;PMS_P2;Temp;Humidity;BMP_temperature;BMP_pressure;BME280_temperature;BME280_humidity;BME280_pressure;Samples;Min_cycle;Max_cycle;Signal;HPM_P1;HPM_P2
2022/03/20 00:02:12;;;;;;;57.70;21.40;;;;;;;-0.45;42.04;101110.89;107456;1285;22551;-71
2022/03/20 00:04:39;;;;;;;52.70;19.30;;;;;;;-0.47;42.20;101107.95;107407;1285;24251;-71
2022/03/20 00:07:11;;;;;;;63.70;23.90;;;;;;;-0.50;42.32;101105.83;107446;1284;22613;-70
2022/03/20 00:09:38;;;;;;;81.80;27.40;;;;;;;-0.53;42.55;101103.55;107412;1284;22631;-70
2022/03/20 00:12:06;;;;;;;72.80;28.50;;;;;;;-0.57;42.75;101103.48;107455;1284;24280;-70
2022/03/20 00:14:33;;;;;;;57.40;24.10;;;;;;;-0.60;42.99;101097.75;107503;1285;22572;-70
2022/03/20 00:17:00;;;;;;;49.20;21.00;;;;;;;-0.63;42.90;101099.93;107444;1285;22632;-70
2022/03/20 00:19:27;;;;;;;48.40;19.40;;;;;;;-0.65;43.12;101097.84;107454;1284;22613;-71
2022/03/20 00:21:55;;;;;;;46.90;18.30;;;;;;;-0.69;43.47;101099.45;107402;1285;22712;-70
2022/03/20 00:24:22;;;;;;;42.00;18.40;;;;;;;-0.73;43.43;101099.74;107516;1284;22607;-70
2022/03/20 00:26:56;;;;;;;43.70;19.20;;;;;;;-0.77;43.75;101097.42;107445;1285;22573;-70
2022/03/20 00:29:25;;;;;;;50.00;20.70;;;;;;;-0.82;44.04;101095.11;107451;1285;22548;-70
2022/03/20 00:31:53;;;;;;;45.40;20.50;;;;;;;-0.86;43.81;101098.62;107431;1285;25693;-72
2022/03/20 00:34:20;;;;;;;53.80;22.60;;;;;;;-0.89;43.63;101100.10;107431;1285;22675;-73
2022/03/20 00:36:47;;;;;;;43.90;21.60;;;;;;;-0.88;43.57;101104.74;107448;1285;25117;-73
2022/03/20 00:39:14;;;;;;;51.80;22.70;;;;;;;-0.87;43.47;101103.55;107464;1285;23216;-72
2022/03/20 00:41:41;;;;;;;40.60;19.40;;;;;;;-0.87;43.54;101103.04;107460;1285;22711;-75
2022/03/20 00:44:08;;;;;;;41.70;16.60;;;;;;;-0.87;43.64;101103.55;107415;1285;23176;-72
2022/03/20 00:46:35;;;;;;;37.40;16.70;;;;;;;-0.87;43.77;101102.18;107411;1285;23013;-72
2022/03/20 00:49:02;;;;;;;37.50;16.80;;;;;;;-0.87;43.71;101104.23;107308;1285;24421;-75
2022/03/20 00:51:29;;;;;;;33.20;16.10;;;;;;;-0.88;43.70;101103.54;107448;1285;22564;-72
2022/03/20 00:53:56;;;;;;;31.40;15.20;;;;;;;-0.87;43.74;101105.78;107278;1285;22639;-72
2022/03/20 00:56:23;;;;;;;32.10;15.00;;;;;;;-0.86;43.71;101104.43;107269;1285;26349;-74
2022/03/20 00:58:50;;;;;;;43.60;18.20;;;;;;;-0.85;43.91;101102.91;107390;1285;23140;-73
2022/03/20 01:01:17;;;;;;;41.70;18.50;;;;;;;-0.84;43.79;101101.05;107447;1285;25192;-71
2022/03/20 01:03:44;;;;;;;37.30;17.80;;;;;;;-0.83;43.84;101106.39;107437;1285;25328;-71
2022/03/20 01:06:11;;;;;;;45.80;17.60;;;;;;;-0.84;43.69;101106.20;107429;1285;22585;-73
2022/03/20 01:08:39;;;;;;;49.70;19.20;;;;;;;-0.85;43.75;101100.17;107413;1285;25560;-72
2022/03/20 01:11:07;;;;;;;46.10;21.30;;;;;;;-0.87;43.76;101102.19;107279;1285;24476;-71
2022/03/20 01:13:35;;;;;;;54.30;23.80;;;;;;;-0.89;43.85;101102.48;107413;1285;22626;-74
2022/03/20 01:16:04;;;;;;;62.60;23.20;;;;;;;-0.91;43.83;101105.53;107335;1285;22629;-74
2022/03/20 01:18:31;;;;;;;50.50;19.40;;;;;;;-0.95;43.97;101098.95;107425;1285;22626;-71
2022/03/20 01:20:58;;;;;;;44.10;17.50;;;;;;;-0.98;44.04;101100.58;107262;1285;24276;-71
2022/03/20 01:23:25;;;;;;;43.30;18.30;;;;;;;-1.02;44.12;101097.96;107445;1285;22640;-77
2022/03/20 01:25:52;;;;;;;32.40;15.20;;;;;;;-1.04;44.15;101097.90;107455;1285;22632;-75
2022/03/20 01:28:21;;;;;;;36.30;16.20;;;;;;;-1.06;44.26;101099.05;107464;1284;24477;-76
2022/03/20 01:30:48;;;;;;;35.10;16.10;;;;;;;-1.08;44.45;101093.38;107537;1285;23501;-77
2022/03/20 01:33:15;;;;;;;34.00;17.00;;;;;;;-1.10;44.43;101092.66;107253;1285;22635;-75
2022/03/20 01:35:43;;;;;;;35.20;15.10;;;;;;;-1.10;44.38;101095.56;107585;1285;22629;-71
2022/03/20 01:38:10;;;;;;;35.70;16.60;;;;;;;-1.11;44.43;101095.36;107438;1285;22622;-73
2022/03/20 01:40:37;;;;;;;38.10;16.60;;;;;;;-1.13;44.38;101090.70;107453;1285;25494;-75
2022/03/20 01:43:04;;;;;;;31.90;14.10;;;;;;;-1.14;44.41;101087.10;107425;1284;22826;-71
2022/03/20 01:45:31;;;;;;;33.20;15.30;;;;;;;-1.16;44.47;101087.05;107186;1285;278907;-73
2022/03/20 01:47:58;;;;;;;36.60;16.70;;;;;;;-1.17;44.61;101085.84;107413;1284;25367;-72
2022/03/20 01:50:27;;;;;;;36.00;16.40;;;;;;;-1.19;44.61;101084.09;107297;1285;25775;-75
2022/03/20 01:52:55;;;;;;;43.20;18.50;;;;;;;-1.21;44.76;101085.23;107455;1285;22556;-71
2022/03/20 01:55:24;;;;;;;43.50;19.70;;;;;;;-1.24;44.79;101080.89;107445;1285;25065;-72
2022/03/20 01:57:53;;;;;;;42.80;19.10;;;;;;;-1.26;44.87;101078.98;107274;1285;22577;-74
2022/03/20 02:00:24;;;;;;;30.60;15.30;;;;;;;-1.29;44.84;101076.69;107566;1285;22669;-72
2022/03/20 02:02:53;;;;;;;27.70;13.90;;;;;;;-1.31;44.92;101080.08;107715;1285;25554;-71
2022/03/20 02:05:21;;;;;;;31.80;16.50;;;;;;;-1.33;44.99;101082.41;107687;1284;26550;-73
2022/03/20 02:07:49;;;;;;;37.40;18.50;;;;;;;-1.37;45.02;101079.95;107684;1284;22572;-73
2022/03/20 02:10:16;;;;;;;29.60;14.90;;;;;;;-1.40;45.01;101079.36;107703;1284;23015;-73
2022/03/20 02:12:44;;;;;;;37.70;18.80;;;;;;;-1.43;44.98;101078.94;107711;1284;22579;-72
2022/03/20 02:15:13;;;;;;;36.00;16.30;;;;;;;-1.46;44.97;101081.45;107692;1284;22567;-73
2022/03/20 02:17:42;;;;;;;34.70;17.80;;;;;;;-1.48;44.84;101080.02;107694;1284;22707;-76
2022/03/20 02:20:10;;;;;;;38.00;17.60;;;;;;;-1.51;44.66;101078.59;107698;1284;22548;-70
2022/03/20 02:22:42;;;;;;;41.40;18.70;;;;;;;-1.55;44.96;101073.23;107695;1284;22544;-73
2022/03/20 02:25:11;;;;;;;42.00;17.70;;;;;;;-1.58;44.67;101073.48;107688;1284;22673;-72
2022/03/20 02:27:43;;;;;;;45.60;20.90;;;;;;;-1.62;44.75;101072.73;107684;1284;23030;-73
2022/03/20 02:30:15;;;;;;;81.70;34.10;;;;;;;-1.66;44.96;101070.73;107683;1284;25965;-75
2022/03/20 02:32:52;;;;;;;83.70;28.10;;;;;;;-1.71;45.02;101066.02;107687;1284;22639;-74
2022/03/20 02:35:20;;;;;;;67.70;25.00;;;;;;;-1.75;45.18;101069.50;107705;1284;22551;-72
2022/03/20 02:37:49;;;;;;;51.10;20.40;;;;;;;-1.78;45.16;101075.92;107672;1284;23949;-71
2022/03/20 02:40:18;;;;;;;46.40;18.90;;;;;;;-1.81;45.44;101076.72;107690;1284;22690;-72
2022/03/20 02:42:51;;;;;;;53.00;21.30;;;;;;;-1.84;45.52;101074.08;107680;1285;22573;-75
2022/03/20 02:45:21;;;;;;;54.20;23.20;;;;;;;-1.86;45.63;101075.73;107659;1285;22642;-73
2022/03/20 02:47:50;;;;;;;43.80;18.80;;;;;;;-1.88;45.55;101071.09;107677;1285;24244;-74
2022/03/20 02:50:17;;;;;;;42.60;18.90;;;;;;;-1.91;46.02;101071.86;107675;1284;22591;-73
2022/03/20 02:52:45;;;;;;;38.00;17.70;;;;;;;-1.95;46.18;101068.52;107674;1285;22586;-71
2022/03/20 02:55:15;;;;;;;37.50;17.60;;;;;;;-1.96;46.29;101073.11;107684;1284;22633;-71
2022/03/20 02:57:44;;;;;;;40.70;18.00;;;;;;;-1.97;46.36;101073.10;107697;1284;24312;-74
2022/03/20 03:00:11;;;;;;;36.30;17.10;;;;;;;-1.97;46.37;101072.07;107700;1284;22631;-71
2022/03/20 03:02:45;;;;;;;41.30;18.70;;;;;;;-1.97;46.48;101075.14;107687;1284;24234;-78
2022/03/20 03:05:16;;;;;;;44.10;19.90;;;;;;;-1.95;46.44;101075.69;107711;1284;22684;-78
2022/03/20 03:13:19;;;;;;;59.10;24.70;;;;;;;-1.93;46.30;101071.64;107675;1284;22564;-70
2022/03/20 03:15:46;;;;;;;53.90;21.90;;;;;;;-1.94;46.25;101072.48;107762;1284;25261;-77
2022/03/20 03:18:13;;;;;;;53.00;21.60;;;;;;;-1.96;46.09;101069.02;107759;1284;22705;-73
2022/03/20 03:20:40;;;;;;;47.10;19.50;;;;;;;-1.98;46.15;101071.02;107688;1284;22572;-73
2022/03/20 03:23:07;;;;;;;40.50;17.70;;;;;;;-2.01;46.34;101069.24;107680;1284;22820;-71
2022/03/20 03:25:38;;;;;;;51.90;22.50;;;;;;;-2.03;46.37;101070.20;107674;1284;22686;-74
2022/03/20 03:28:05;;;;;;;39.80;18.90;;;;;;;-2.06;46.43;101069.45;107435;1284;22679;-75
2022/03/20 03:30:33;;;;;;;40.30;17.40;;;;;;;-2.08;46.57;101071.11;107727;1284;24274;-75
2022/03/20 03:33:00;;;;;;;35.80;16.20;;;;;;;-2.12;46.75;101069.14;107672;1284;22544;-75
2022/03/20 03:35:43;;;;;;;41.60;19.50;;;;;;;-2.12;46.82;101070.83;107716;1284;22545;-73
2022/03/20 03:38:26;;;;;;;35.80;16.60;;;;;;;-2.13;46.85;101066.89;107702;1284;22564;-74
2022/03/20 03:40:56;;;;;;;34.50;16.70;;;;;;;-2.15;47.08;101060.19;107689;1284;22559;-79
2022/03/20 03:43:24;;;;;;;39.90;18.20;;;;;;;-2.16;47.01;101064.45;107677;1284;22557;-76
2022/03/20 03:45:56;;;;;;;41.20;18.50;;;;;;;-2.18;46.75;101065.08;107708;1284;26008;-79
2022/03/20 03:48:23;;;;;;;44.40;21.40;;;;;;;-2.19;47.01;101066.41;107561;1285;22692;-73
2022/03/20 03:50:52;;;;;;;42.70;21.80;;;;;;;-2.20;46.98;101072.34;107702;1284;22578;-74
2022/03/20 03:53:19;;;;;;;41.60;19.50;;;;;;;-2.22;46.80;101069.89;107676;1284;22705;-79
2022/03/20 03:55:46;;;;;;;34.90;16.80;;;;;;;-2.24;47.13;101074.30;107411;1285;22562;-73
2022/03/20 03:58:14;;;;;;;44.80;17.30;;;;;;;-2.26;47.23;101077.15;107467;1284;22576;-78
2022/03/20 04:00:43;;;;;;;36.20;16.70;;;;;;;-2.29;47.26;101071.45;107448;1284;22999;-75
2022/03/20 04:03:10;;;;;;;38.10;17.90;;;;;;;-2.32;47.58;101069.66;107434;1284;22725;-76
2022/03/20 04:05:37;;;;;;;38.90;17.60;;;;;;;-2.33;47.64;101073.22;107426;1285;22566;-76
2022/03/20 04:08:08;;;;;;;35.10;17.90;;;;;;;-2.35;47.66;101068.91;107381;1285;22624;-76
2022/03/20 04:10:35;;;;;;;46.60;21.30;;;;;;;-2.37;47.65;101069.54;107400;1285;25804;-71
2022/03/20 04:13:02;;;;;;;35.70;18.40;;;;;;;-2.38;47.46;101071.04;107396;1284;23650;-72
2022/03/20 04:15:31;;;;;;;39.80;17.60;;;;;;;-2.38;47.46;101068.47;107434;1285;22578;-70
2022/03/20 04:18:00;;;;;;;41.40;19.90;;;;;;;-2.39;47.40;101069.99;107413;1284;22720;-71
2022/03/20 04:20:28;;;;;;;38.90;19.30;;;;;;;-2.38;47.47;101076.65;107384;1284;22725;-73
2022/03/20 04:25:40;;;;;;;35.20;18.00;;;;;;;-2.37;47.59;101081.99;107674;1284;24315;-74
2022/03/20 04:28:08;;;;;;;34.30;18.00;;;;;;;-2.37;47.64;101083.02;107610;1286;22632;-74
2022/03/20 04:30:36;;;;;;;32.80;16.60;;;;;;;-2.37;47.77;101085.92;107685;1287;22634;-79
2022/03/20 04:33:04;;;;;;;43.50;19.50;;;;;;;-2.37;47.80;101083.69;107660;1288;22659;-76
2022/03/20 04:35:31;;;;;;;47.80;21.60;;;;;;;-2.37;47.80;101094.95;107650;1285;24166;-73
2022/03/20 04:37:58;;;;;;;42.20;18.90;;;;;;;-2.38;47.68;101098.19;107619;1288;22705;-73
2022/03/20 04:40:25;;;;;;;50.10;21.70;;;;;;;-2.38;47.70;101095.80;107667;1285;22590;-73
2022/03/20 04:42:52;;;;;;;39.10;17.70;;;;;;;-2.38;48.11;101094.08;107525;1285;22746;-75
2022/03/20 04:45:19;;;;;;;50.60;22.90;;;;;;;-2.39;47.80;101096.63;107681;1285;22550;-77
2022/03/20 04:58:49;;;;;;;41.50;19.50;;;;;;;-2.41;47.73;101112.27;107379;1286;22660;-76
2022/03/20 05:01:16;;;;;;;40.70;20.00;;;;;;;-2.40;47.97;101111.77;107398;1287;22633;-72
2022/03/20 05:03:43;;;;;;;50.70;24.40;;;;;;;-2.40;47.85;101116.90;107359;1286;23512;-74
2022/03/20 05:06:10;;;;;;;74.80;34.80;;;;;;;-2.39;47.94;101117.59;107196;1285;22621;-71
2022/03/20 05:08:37;;;;;;;46.40;22.00;;;;;;;-2.39;48.06;101123.39;107380;1287;22561;-75
2022/03/20 05:13:50;;;;;;;97.20;38.00;;;;;;;-2.35;48.01;101128.64;107397;1285;22647;-71
2022/03/20 05:16:17;;;;;;;84.10;36.00;;;;;;;-2.33;47.97;101131.27;107370;1287;22571;-74
2022/03/20 05:18:44;;;;;;;62.00;28.10;;;;;;;-2.29;47.82;101136.48;107345;1288;22580;-73
2022/03/20 05:21:11;;;;;;;69.00;31.60;;;;;;;-2.27;47.94;101136.52;107378;1286;22902;-73
2022/03/20 05:23:39;;;;;;;44.70;23.00;;;;;;;-2.22;47.86;101139.88;107376;1285;22636;-73
2022/03/20 05:26:06;;;;;;;48.00;24.30;;;;;;;-2.16;47.99;101139.73;107350;1285;22621;-72
2022/03/20 05:28:33;;;;;;;36.10;18.50;;;;;;;-2.03;47.93;101139.90;107404;1284;22549;-74
2022/03/20 05:31:03;;;;;;;46.40;24.60;;;;;;;-1.84;48.24;101144.80;107378;1285;22711;-74
2022/03/20 05:33:31;;;;;;;42.50;21.00;;;;;;;-1.65;48.78;101142.02;107410;1284;23543;-71
2022/03/20 05:35:59;;;;;;;49.50;23.80;;;;;;;-1.44;48.68;101145.41;107391;1285;23232;-75
2022/03/20 05:38:26;;;;;;;46.00;23.70;;;;;;;-1.23;48.75;101148.65;107443;1284;22647;-73
2022/03/20 05:41:43;;;;;;;46.80;24.20;;;;;;;-1.00;48.49;101148.11;107795;1283;22704;-78
2022/03/20 05:43:40;;;;;;;42.90;22.70;;;;;;;-0.72;48.80;101152.12;107371;1284;22737;-72
2022/03/20 05:46:08;;;;;;;40.90;22.00;;;;;;;-0.49;48.89;101149.15;107375;1284;22586;-75
2022/03/20 05:48:35;;;;;;;47.50;23.10;;;;;;;-0.26;48.33;101145.81;107374;1285;25125;-74
2022/03/20 05:51:02;;;;;;;40.20;22.40;;;;;;;-0.03;47.85;101145.02;107356;1284;22599;-76
2022/03/20 05:53:29;;;;;;;46.20;23.00;;;;;;;0.23;48.39;101150.63;107410;1284;22593;-75
2022/03/20 05:58:42;;;;;;;52.60;26.90;;;;;;;0.65;47.28;101151.28;107392;1286;22544;-73
2022/03/20 06:01:09;;;;;;;57.10;28.90;;;;;;;0.85;47.25;101150.21;107396;1285;22541;-73
2022/03/20 06:03:36;;;;;;;48.60;25.50;;;;;;;0.98;46.29;101152.61;107379;1284;22563;-71
2022/03/20 06:06:06;;;;;;;64.90;30.60;;;;;;;1.09;45.95;101154.66;107418;1283;22552;-72
2022/03/20 06:08:35;;;;;;;63.80;31.10;;;;;;;1.20;45.36;101155.63;107419;1284;22577;-72
2022/03/20 06:11:03;;;;;;;88.50;36.90;;;;;;;1.21;45.02;101159.09;107410;1284;24284;-72
2022/03/20 06:13:31;;;;;;;59.40;29.10;;;;;;;1.18;44.46;101162.31;107416;1284;23276;-71
2022/03/20 06:15:58;;;;;;;62.70;29.80;;;;;;;1.05;44.29;101159.41;107403;1285;22613;-72
2022/03/20 06:18:28;;;;;;;70.40;29.80;;;;;;;0.98;44.41;101160.01;107464;1284;24391;-74
2022/03/20 06:20:57;;;;;;;59.10;26.00;;;;;;;0.92;44.10;101159.05;107227;1285;25267;-75
2022/03/20 06:23:24;;;;;;;57.50;28.10;;;;;;;0.83;43.97;101157.38;107383;1284;22588;-76
2022/03/20 06:25:52;;;;;;;55.00;26.50;;;;;;;0.79;43.85;101158.02;107423;1284;22707;-75
2022/03/20 06:28:19;;;;;;;48.50;23.00;;;;;;;0.74;43.77;101158.80;107459;1284;22589;-73
2022/03/20 06:30:47;;;;;;;51.10;24.80;;;;;;;0.66;43.67;101161.41;107394;1284;24241;-71
2022/03/20 06:33:15;;;;;;;47.50;23.90;;;;;;;0.58;43.77;101162.33;107375;1284;23237;-75
2022/03/20 06:35:42;;;;;;;53.40;25.50;;;;;;;0.57;43.67;101160.08;107277;1285;22595;-76
2022/03/20 06:38:09;;;;;;;59.00;27.20;;;;;;;0.57;43.53;101166.59;107282;1285;22686;-71
2022/03/20 06:40:36;;;;;;;55.20;28.50;;;;;;;0.55;43.63;101171.70;107432;1284;23224;-71
2022/03/20 06:43:03;;;;;;;56.90;28.10;;;;;;;0.58;43.70;101175.71;107408;1284;22755;-71
2022/03/20 06:45:30;;;;;;;63.70;30.90;;;;;;;0.63;43.58;101182.98;107415;1284;22635;-72
2022/03/20 06:47:59;;;;;;;43.40;22.80;;;;;;;0.65;43.37;101186.45;107419;1284;23494;-74
2022/03/20 06:50:27;;;;;;;46.50;23.90;;;;;;;0.64;43.29;101192.60;107399;1284;22718;-73
2022/03/20 06:52:54;;;;;;;48.30;26.00;;;;;;;0.70;43.23;101194.59;107439;1284;22722;-72
2022/03/20 06:55:22;;;;;;;72.80;38.00;;;;;;;0.76;43.21;101197.24;107425;1284;22597;-73
2022/03/20 06:57:49;;;;;;;52.20;27.20;;;;;;;0.83;43.16;101199.91;107408;1284;22652;-76
2022/03/20 07:00:16;;;;;;;47.20;26.00;;;;;;;0.92;42.81;101202.96;107404;1284;26796;-77
2022/03/20 07:02:43;;;;;;;54.30;27.80;;;;;;;0.96;42.79;101203.38;107388;1284;22689;-71
2022/03/20 07:05:11;;;;;;;49.20;25.70;;;;;;;1.04;42.57;101205.73;107422;1284;22705;-78
2022/03/20 07:07:40;;;;;;;47.20;24.60;;;;;;;1.12;42.59;101207.55;107370;1284;25102;-72
2022/03/20 07:10:08;;;;;;;43.30;24.00;;;;;;;1.22;42.36;101207.86;107409;1284;25629;-77
2022/03/20 07:12:35;;;;;;;45.30;24.40;;;;;;;1.28;41.86;101209.48;107472;1283;22555;-79
2022/03/20 07:15:02;;;;;;;50.60;28.80;;;;;;;1.35;41.86;101213.35;107455;1284;22732;-76
2022/03/20 07:17:29;;;;;;;50.30;27.00;;;;;;;1.43;41.83;101214.84;107462;1284;24390;-73
2022/03/20 07:19:58;;;;;;;49.40;24.20;;;;;;;1.51;41.57;101220.43;107420;1284;24281;-72
2022/03/20 07:22:26;;;;;;;47.50;26.30;;;;;;;1.56;41.15;101217.40;107399;1283;24277;-75
2022/03/20 07:24:53;;;;;;;54.00;27.20;;;;;;;1.62;41.09;101216.28;107428;1284;22577;-76
2022/03/20 07:30:07;;;;;;;40.90;23.20;;;;;;;1.81;41.32;101216.48;107442;1284;22555;-73
2022/03/20 07:32:34;;;;;;;44.20;22.50;;;;;;;1.93;41.29;101219.89;107409;1285;22731;-72
2022/03/20 07:35:02;;;;;;;67.50;27.10;;;;;;;2.06;40.90;101219.35;107449;1285;26564;-79
2022/03/20 07:37:29;;;;;;;58.10;25.60;;;;;;;2.18;40.35;101219.99;107423;1285;25373;-73
2022/03/20 07:39:56;;;;;;;46.30;22.10;;;;;;;2.26;40.10;101217.98;107411;1285;22717;-74
2022/03/20 07:42:26;;;;;;;46.30;23.40;;;;;;;2.38;39.41;101222.41;107257;1284;22546;-71
2022/03/20 07:44:53;;;;;;;41.30;22.40;;;;;;;2.44;38.96;101225.73;107421;1284;22597;-72
2022/03/20 07:47:22;;;;;;;39.90;21.50;;;;;;;2.50;38.48;101231.98;107408;1284;22706;-72
2022/03/20 07:49:50;;;;;;;35.40;20.30;;;;;;;2.54;38.63;101230.98;107428;1284;22646;-73
2022/03/20 07:52:18;;;;;;;36.10;19.40;;;;;;;2.64;38.58;101231.76;107475;1284;22656;-72
2022/03/20 07:54:46;;;;;;;38.90;20.70;;;;;;;2.77;39.01;101234.95;107431;1284;22614;-74
2022/03/20 07:57:14;;;;;;;42.80;21.40;;;;;;;2.87;38.97;101232.27;107453;1284;22553;-71
2022/03/20 07:59:42;;;;;;;34.90;19.90;;;;;;;2.97;39.02;101231.65;107428;1284;22608;-72
2022/03/20 08:02:09;;;;;;;38.60;21.20;;;;;;;3.09;38.94;101237.93;107428;1284;22562;-78
2022/03/20 08:04:36;;;;;;;40.00;21.70;;;;;;;3.20;38.65;101235.42;107442;1284;22603;-73
2022/03/20 08:07:05;;;;;;;36.10;20.20;;;;;;;3.30;38.62;101242.02;107424;1285;22631;-76
2022/03/20 08:09:32;;;;;;;38.80;21.10;;;;;;;3.40;38.42;101239.49;107432;1284;22634;-76
2022/03/20 08:12:00;;;;;;;34.80;19.40;;;;;;;3.48;37.78;101240.57;107405;1284;22546;-76
2022/03/20 08:14:27;;;;;;;41.50;21.10;;;;;;;3.54;37.51;101239.73;107423;1283;22719;-70
2022/03/20 08:16:55;;;;;;;45.80;24.60;;;;;;;3.59;37.61;101239.41;107423;1284;23089;-70
2022/03/20 08:19:24;;;;;;;39.80;21.00;;;;;;;3.65;37.76;101238.92;107442;1285;22593;-72
2022/03/20 08:21:52;;;;;;;38.20;20.30;;;;;;;3.72;37.65;101239.82;107433;1284;22565;-74
2022/03/20 08:24:19;;;;;;;39.60;20.20;;;;;;;3.77;37.37;101237.41;107488;1285;23522;-71
2022/03/20 08:26:46;;;;;;;38.50;21.50;;;;;;;3.83;36.80;101236.08;107421;1285;22561;-71
2022/03/20 08:29:14;;;;;;;39.70;23.00;;;;;;;3.87;36.79;101235.73;107434;1284;25409;-71
2022/03/20 08:31:47;;;;;;;36.20;20.10;;;;;;;3.96;37.33;101237.99;107435;1285;22581;-74
2022/03/20 08:34:15;;;;;;;40.20;20.50;;;;;;;4.09;36.27;101235.80;107429;1285;22659;-72
2022/03/20 08:36:46;;;;;;;52.20;31.90;;;;;;;4.14;36.35;101235.62;107488;1284;24561;-73
2022/03/20 08:39:14;;;;;;;72.10;42.70;;;;;;;4.21;35.86;101232.70;107420;1285;22575;-71
2022/03/20 08:41:43;;;;;;;48.90;26.50;;;;;;;4.26;35.86;101227.39;107441;1285;24167;-72
2022/03/20 08:44:10;;;;;;;43.80;23.00;;;;;;;4.33;36.06;101225.67;107437;1285;22642;-72
2022/03/20 08:46:37;;;;;;;40.50;23.00;;;;;;;4.39;35.70;101226.70;107414;1285;22545;-72
2022/03/20 08:49:07;;;;;;;38.80;22.60;;;;;;;4.46;35.54;101224.98;107428;1285;22657;-70
2022/03/20 08:51:35;;;;;;;47.80;26.90;;;;;;;4.50;35.35;101219.29;107576;1285;22599;-70
2022/03/20 08:54:02;;;;;;;46.20;24.80;;;;;;;4.58;35.24;101221.02;107757;1285;26218;-76
2022/03/20 08:56:30;;;;;;;42.00;23.80;;;;;;;4.66;34.77;101220.51;107702;1285;22659;-82
2022/03/20 08:58:57;;;;;;;38.10;22.30;;;;;;;4.70;34.66;101225.34;107686;1285;22549;-78
2022/03/20 09:01:24;;;;;;;37.20;20.50;;;;;;;4.75;35.24;101222.58;107429;1285;22636;-71
2022/03/20 09:03:52;;;;;;;40.30;22.10;;;;;;;4.83;34.67;101221.02;107420;1285;22648;-71
2022/03/20 09:06:20;;;;;;;44.40;26.20;;;;;;;4.90;35.00;101218.42;107414;1285;22797;-70
2022/03/20 09:08:48;;;;;;;41.20;22.70;;;;;;;4.99;34.57;101216.69;107419;1285;22612;-77
2022/03/20 09:11:17;;;;;;;33.60;20.10;;;;;;;5.09;34.89;101211.48;107417;1283;22564;-72
2022/03/20 09:13:45;;;;;;;33.70;20.20;;;;;;;5.19;35.02;101205.93;107514;1285;22659;-85
2022/03/20 09:19:00;;;;;;;39.90;22.90;;;;;;;5.40;34.88;101215.02;107419;1285;22785;-80
2022/03/20 09:21:30;;;;;;;39.50;22.80;;;;;;;5.49;34.62;101210.85;107404;1285;23021;-80
2022/03/20 09:23:58;;;;;;;62.70;39.10;;;;;;;5.58;34.80;101208.73;107418;1285;22550;-71
2022/03/20 09:26:25;;;;;;;46.80;27.10;;;;;;;5.68;34.55;101205.06;107434;1285;24059;-73
2022/03/20 09:28:52;;;;;;;48.40;24.80;;;;;;;5.75;33.97;101205.55;107433;1285;22711;-77
2022/03/20 09:31:19;;;;;;;44.50;24.90;;;;;;;5.84;32.90;101207.74;107436;1285;24317;-72
2022/03/20 09:33:48;;;;;;;44.10;24.00;;;;;;;5.88;33.44;101204.98;107297;1285;22567;-74
2022/03/20 09:36:15;;;;;;;55.90;27.80;;;;;;;5.96;33.39;101204.44;107154;1284;22549;-78
2022/03/20 09:38:42;;;;;;;44.60;23.30;;;;;;;6.06;32.76;101205.25;107350;1285;22572;-82
2022/03/20 09:41:11;;;;;;;45.40;26.60;;;;;;;6.10;32.40;101200.54;107424;1285;22664;-85
2022/03/20 09:43:43;;;;;;;35.10;19.40;;;;;;;6.15;32.57;101200.51;107441;1285;22650;-85
2022/03/20 09:46:10;;;;;;;30.10;16.70;;;;;;;6.25;32.64;101197.85;107427;1285;22667;-71
2022/03/20 09:48:37;;;;;;;29.20;17.30;;;;;;;6.30;32.02;101196.59;107430;1285;22603;-79
2022/03/20 09:51:05;;;;;;;29.70;18.30;;;;;;;6.34;32.05;101196.41;107415;1285;22904;-77
2022/03/20 09:53:32;;;;;;;27.70;14.70;;;;;;;6.38;31.95;101197.57;107452;1285;22563;-73
2022/03/20 09:56:01;;;;;;;28.30;17.40;;;;;;;6.45;31.75;101193.38;107420;1285;22588;-73
2022/03/20 09:58:29;;;;;;;30.10;16.40;;;;;;;6.53;31.18;101194.88;107431;1285;22554;-80
2022/03/20 10:00:56;;;;;;;28.10;15.70;;;;;;;6.62;31.19;101196.86;107400;1285;22576;-85
2022/03/20 10:03:24;;;;;;;32.30;17.50;;;;;;;6.69;31.27;101194.91;107411;1285;22576;-74
2022/03/20 10:06:17;;;;;;;22.90;14.30;;;;;;;6.74;31.38;101192.77;107425;1285;22639;-74
2022/03/20 10:08:56;;;;;;;30.20;17.90;;;;;;;6.83;30.50;101189.23;107418;1285;22582;-83
2022/03/20 10:11:25;;;;;;;27.70;15.40;;;;;;;6.90;31.28;101190.38;107437;1285;22635;-77
2022/03/20 10:14:07;;;;;;;27.20;15.40;;;;;;;6.98;30.08;101193.59;107436;1285;22570;-71
2022/03/20 10:16:36;;;;;;;27.30;15.60;;;;;;;7.03;30.40;101192.50;107419;1285;25335;-81
2022/03/20 10:19:25;;;;;;;23.80;13.20;;;;;;;7.09;30.49;101193.13;107449;1285;23106;-79
2022/03/20 10:22:21;;;;;;;20.40;12.20;;;;;;;7.13;30.56;101191.19;107453;1285;22669;-71
2022/03/20 10:24:52;;;;;;;22.10;13.70;;;;;;;7.19;30.37;101186.27;107329;1284;22570;-70
2022/03/20 10:27:19;;;;;;;33.00;21.70;;;;;;;7.25;29.29;101188.29;107414;1285;25525;-88
2022/03/20 10:30:00;;;;;;;25.10;16.60;;;;;;;7.24;29.15;101185.02;107427;1285;22632;-71
2022/03/20 10:32:27;;;;;;;25.10;15.70;;;;;;;7.30;29.46;101182.84;107424;1285;22603;-71
2022/03/20 10:35:04;;;;;;;23.50;14.10;;;;;;;7.39;29.27;101183.27;107696;1284;25356;-77
2022/03/20 10:37:46;;;;;;;26.30;15.90;;;;;;;7.39;29.45;101179.45;107786;1284;25265;-73
2022/03/20 10:40:15;;;;;;;27.40;15.70;;;;;;;7.38;29.61;101181.89;107758;1284;25232;-73
2022/03/20 10:43:03;;;;;;;27.00;16.00;;;;;;;7.43;29.61;101176.10;107482;1285;22613;-78
2022/03/20 10:45:30;;;;;;;33.20;19.90;;;;;;;7.54;29.38;101175.10;107455;1285;22556;-71
2022/03/20 10:48:01;;;;;;;25.10;15.20;;;;;;;7.65;29.34;101177.40;107784;1284;22643;-75
2022/03/20 10:50:28;;;;;;;25.20;15.50;;;;;;;7.71;28.75;101175.57;107776;1284;22748;-79
2022/03/20 10:53:08;;;;;;;67.60;40.50;;;;;;;7.75;28.00;101173.96;107764;1284;22643;-69
2022/03/20 10:55:35;;;;;;;40.70;22.10;;;;;;;7.77;28.24;101169.95;107452;1286;22585;-72
2022/03/20 10:58:17;;;;;;;26.80;17.10;;;;;;;7.82;28.70;101164.84;107763;1284;22588;-72
2022/03/20 11:00:46;;;;;;;28.30;16.40;;;;;;;7.88;28.55;101165.61;107764;1284;22558;-75
2022/03/20 11:03:19;;;;;;;23.70;13.90;;;;;;;7.90;28.42;101159.52;107794;1284;22546;-71
2022/03/20 11:05:46;;;;;;;20.20;13.60;;;;;;;7.98;28.03;101167.56;107784;1284;22557;-87
2022/03/20 11:08:13;;;;;;;20.90;13.40;;;;;;;7.96;27.74;101163.79;107777;1284;22570;-84
2022/03/20 11:10:46;;;;;;;22.50;12.80;;;;;;;7.98;28.03;101162.36;107775;1284;24432;-78
2022/03/20 11:13:14;;;;;;;;;;;;;;;8.00;28.06;101156.61;107796;1284;22578;-84
2022/03/20 11:15:45;;;;;;;27.30;12.90;;;;;;;8.05;27.56;101153.75;107737;1284;22589;-72
2022/03/20 11:18:15;;;;;;;23.70;14.50;;;;;;;8.14;26.93;101153.09;107777;1284;22577;-75
2022/03/20 11:20:48;;;;;;;26.50;14.70;;;;;;;8.20;27.24;101148.67;107762;1284;22622;-73
2022/03/20 11:23:17;;;;;;;21.50;12.60;;;;;;;8.23;27.09;101147.23;107748;1284;22687;-77
2022/03/20 11:25:47;;;;;;;20.50;12.20;;;;;;;8.27;27.81;101142.48;107750;1284;22567;-78
2022/03/20 11:28:15;;;;;;;25.40;13.90;;;;;;;8.32;27.51;101139.48;107764;1284;22585;-73
2022/03/20 11:30:46;;;;;;;22.70;12.60;;;;;;;8.37;26.93;101137.66;107780;1284;22578;-74
2022/03/20 11:33:14;;;;;;;22.20;14.10;;;;;;;8.32;26.68;101133.91;107749;1283;22571;-73
2022/03/20 11:35:42;;;;;;;23.00;13.40;;;;;;;8.35;27.00;101128.14;107778;1284;22558;-86
2022/03/20 11:38:15;;;;;;;25.40;14.10;;;;;;;8.39;27.09;101121.30;107760;1284;22647;-74
2022/03/20 11:41:10;;;;;;;23.10;13.40;;;;;;;8.47;27.41;101125.52;107661;1284;22548;-73
2022/03/20 11:43:44;;;;;;;20.20;12.70;;;;;;;8.53;27.50;101121.92;107227;1285;24475;-71
2022/03/20 11:46:32;;;;;;;17.60;10.50;;;;;;;8.55;27.62;101117.89;107587;1284;22616;-84